Time;durP1;ratioP1;P1;durP2;ratioP2;P2;SDS_P1;SDS_P2;PMS_P1;PMS_P2;Temp;Humidity;BMP_temperature;BMP_pressure;BME280_temperature;BME280_humidity;BME280_pressure;Samples;Min_cycle;Max_cycle;Signal;HPM_P1;HPM_P2
2022/02/07 00:01:29;;;;;;;18.40;8.70;;;;;;;1.36;71.94;98364.55;109366;1274;22416;-58
2022/02/07 00:03:59;;;;;;;18.80;10.30;;;;;;;1.30;71.55;98362.52;109361;1274;23273;-59
2022/02/07 00:06:28;;;;;;;17.70;9.10;;;;;;;1.29;71.86;98361.66;109314;1274;137327;-59
2022/02/07 00:09:16;;;;;;;16.90;8.10;;;;;;;1.24;71.79;98360.52;109418;1274;22440;-59
2022/02/07 00:11:44;;;;;;;14.00;6.70;;;;;;;1.22;71.87;98363.76;109215;1274;138055;-58
2022/02/07 00:14:12;;;;;;;17.40;8.80;;;;;;;1.21;72.17;98359.64;109364;1274;23260;-58
2022/02/07 00:17:00;;;;;;;16.10;8.40;;;;;;;1.21;72.28;98359.05;109297;1273;139115;-58
2022/02/07 00:19:28;;;;;;;16.00;8.40;;;;;;;1.20;72.21;98351.56;109387;1274;23164;-58
2022/02/07 00:21:59;;;;;;;19.10;8.20;;;;;;;1.20;72.31;98346.20;109353;1274;22466;-58
2022/02/07 00:24:47;;;;;;;16.60;8.50;;;;;;;1.21;72.64;98341.64;109206;1274;137694;-58
2022/02/07 00:27:15;;;;;;;18.20;9.00;;;;;;;1.22;72.69;98335.48;109430;1274;22413;-58
2022/02/07 00:29:43;;;;;;;14.40;8.40;;;;;;;1.22;72.80;98331.55;109265;1274;138741;-58
2022/02/07 00:32:10;;;;;;;13.70;7.40;;;;;;;1.22;72.78;98329.70;109386;1274;22464;-58
2022/02/07 00:34:39;;;;;;;12.50;7.00;;;;;;;1.23;72.89;98327.09;109240;1274;138818;-58
2022/02/07 00:37:07;;;;;;;14.90;8.10;;;;;;;1.25;72.75;98326.00;109406;1274;22477;-58
2022/02/07 00:39:44;;;;;;;14.00;7.40;;;;;;;1.25;72.84;98318.45;109383;1274;22478;-54
2022/02/07 00:42:22;;;;;;;11.90;6.60;;;;;;;1.24;72.95;98316.06;109298;1274;137880;-55
2022/02/07 00:44:50;;;;;;;13.10;6.90;;;;;;;1.25;73.04;98313.29;109394;1274;23675;-56
2022/02/07 00:47:18;;;;;;;14.80;6.80;;;;;;;1.25;73.02;98306.64;109289;1274;138195;-55
2022/02/07 00:49:46;;;;;;;12.40;6.90;;;;;;;1.25;72.92;98307.63;109238;1274;22422;-55
2022/02/07 00:52:14;;;;;;;14.10;5.60;;;;;;;1.25;72.95;98302.46;109300;1274;22424;-55
2022/02/07 00:54:42;;;;;;;12.30;6.20;;;;;;;1.25;73.13;98296.19;109298;1274;138656;-55
2022/02/07 00:57:17;;;;;;;12.50;6.90;;;;;;;1.27;73.21;98288.58;109306;1274;22562;-55
2022/02/07 00:59:45;;;;;;;15.20;7.20;;;;;;;1.28;73.04;98287.08;109238;1274;139613;-55
2022/02/07 01:02:13;;;;;;;14.10;6.50;;;;;;;1.29;73.03;98282.98;109283;1274;22400;-55
2022/02/07 01:04:42;;;;;;;10.00;5.50;;;;;;;1.30;73.21;98274.36;109197;1274;138275;-55
2022/02/07 01:07:10;;;;;;;11.10;5.90;;;;;;;1.32;73.40;98272.58;109306;1274;22430;-55
2022/02/07 01:09:43;;;;;;;10.20;5.10;;;;;;;1.34;73.16;98265.46;109398;1274;23193;-55
2022/02/07 01:12:23;;;;;;;9.50;5.00;;;;;;;1.36;73.08;98259.45;109290;1274;137245;-55
2022/02/07 01:51:08;;;;;;;10.80;5.10;;;;;;;1.55;72.21;98177.57;108371;1284;22478;-55
2022/02/07 01:54:10;;;;;;;11.80;5.70;;;;;;;1.57;72.33;98171.92;108297;1282;137234;-55
2022/02/07 01:56:41;;;;;;;13.20;5.80;;;;;;;1.58;72.19;98166.16;108488;1282;23262;-55
2022/02/07 01:59:09;;;;;;;10.60;5.00;;;;;;;1.60;72.06;98162.85;108311;1284;139642;-54
2022/02/07 02:01:40;;;;;;;12.80;5.80;;;;;;;1.59;71.84;98157.56;108522;1283;22490;-55
2022/02/07 02:04:08;;;;;;;14.80;6.20;;;;;;;1.59;72.08;98159.77;108402;1284;22487;-55
2022/02/07 02:06:37;;;;;;;12.50;6.40;;;;;;;1.58;72.14;98159.17;108414;1283;137299;-55
2022/02/07 02:09:14;;;;;;;13.00;5.90;;;;;;;1.57;72.15;98151.92;108504;1282;22461;-54
2022/02/07 02:11:43;;;;;;;12.20;5.30;;;;;;;1.56;72.19;98149.80;108360;1283;138107;-55
2022/02/07 02:14:29;;;;;;;8.80;5.10;;;;;;;1.55;72.04;98146.23;108497;1283;23733;-54
2022/02/07 02:39:03;;;;;;;10.10;6.00;;;;;;;1.62;72.17;98129.98;109289;1274;22421;-55
2022/02/07 02:47:24;;;;;;;9.40;5.60;;;;;;;1.56;72.28;98113.30;109269;1274;140439;-55
2022/02/07 02:50:15;;;;;;;8.70;5.30;;;;;;;1.54;72.18;98112.87;109273;1274;22489;-55
2022/02/07 02:52:56;;;;;;;10.10;5.50;;;;;;;1.55;72.47;98109.27;109142;1274;139651;-55
2022/02/07 02:55:25;;;;;;;9.80;5.50;;;;;;;1.55;72.31;98112.78;109281;1274;23207;-55
2022/02/07 02:57:53;;;;;;;7.90;5.20;;;;;;;1.56;72.29;98116.89;109425;1273;22543;-55
2022/02/07 03:00:21;;;;;;;8.50;5.20;;;;;;;1.58;72.49;98127.71;109231;1273;138490;-55
2022/02/07 03:02:57;;;;;;;10.60;6.40;;;;;;;1.59;72.42;98124.98;109444;1273;22492;-55
2022/02/07 03:05:25;;;;;;;11.50;6.90;;;;;;;1.59;72.35;98120.36;109338;1274;138564;-55
2022/02/07 03:07:54;;;;;;;9.60;6.10;;;;;;;1.60;72.66;98122.20;109437;1274;22558;-54
2022/02/07 03:10:26;;;;;;;12.50;6.50;;;;;;;1.60;72.85;98119.80;109271;1274;23424;-55
2022/02/07 03:13:17;;;;;;;11.30;6.80;;;;;;;1.59;72.94;98117.31;109287;1274;137083;-55
2022/02/07 03:18:32;;;;;;;10.80;6.10;;;;;;;1.55;73.41;98104.29;109368;1274;137728;-55
2022/02/07 03:21:00;;;;;;;11.10;6.50;;;;;;;1.51;73.68;98101.20;109432;1273;22470;-55
2022/02/07 03:23:30;;;;;;;10.80;6.70;;;;;;;1.47;73.70;98095.62;109153;1274;139163;-55
2022/02/07 03:25:58;;;;;;;10.00;5.50;;;;;;;1.47;74.04;98100.65;109386;1274;22651;-55
2022/02/07 03:28:28;;;;;;;11.80;5.80;;;;;;;1.44;74.18;98095.38;109380;1274;22443;-55
2022/02/07 03:30:57;;;;;;;10.80;5.50;;;;;;;1.45;74.41;98092.24;109248;1273;138717;-55
2022/02/07 03:33:25;;;;;;;10.40;6.30;;;;;;;1.46;74.33;98088.06;109338;1274;22515;-55
2022/02/07 03:35:54;;;;;;;10.30;5.90;;;;;;;1.45;74.67;98076.52;109176;1274;139403;-55
2022/02/07 03:38:24;;;;;;;11.90;6.80;;;;;;;1.43;74.81;98069.21;109320;1274;23448;-55
2022/02/07 03:40:52;;;;;;;9.30;5.10;;;;;;;1.45;74.68;98066.86;105888;1274;137811;-54
2022/02/07 03:43:22;;;;;;;11.30;5.70;;;;;;;1.46;74.74;98058.66;105030;1274;24549;-54
2022/02/07 03:45:51;;;;;;;11.50;6.70;;;;;;;1.46;74.50;98054.64;109453;1273;23642;-54
2022/02/07 03:48:20;;;;;;;9.30;5.80;;;;;;;1.45;74.68;98051.19;109205;1274;138204;-55
2022/02/07 03:50:48;;;;;;;9.00;6.00;;;;;;;1.45;74.76;98049.31;109456;1273;23221;-55
2022/02/07 03:53:16;;;;;;;9.80;6.60;;;;;;;1.42;74.64;98042.60;109319;1273;137771;-55
2022/02/07 03:55:53;;;;;;;;;;;;;;;1.47;74.62;98042.22;109344;1274;22591;-54
2022/02/07 03:58:21;;;;;;;13.20;6.30;;;;;;;1.47;74.63;98043.71;109355;1274;22450;-54
2022/02/07 04:00:52;;;;;;;10.30;5.80;;;;;;;1.47;74.76;98042.30;109193;1274;138248;-54
2022/02/07 04:03:35;;;;;;;12.90;6.00;;;;;;;1.47;74.60;98039.09;109373;1274;22417;-54
2022/02/07 04:06:08;;;;;;;10.60;5.70;;;;;;;1.46;74.58;98041.88;109215;1274;138018;-54
2022/02/07 04:08:40;;;;;;;9.40;6.20;;;;;;;1.48;74.82;98031.23;109414;1273;22485;-55
2022/02/07 04:11:52;;;;;;;11.60;6.20;;;;;;;1.51;74.81;98028.66;109208;1273;139628;-54
2022/02/07 04:14:07;;;;;;;11.20;6.20;;;;;;;1.51;74.72;98028.08;109305;1274;24183;-54
2022/02/07 04:16:38;;;;;;;11.30;6.10;;;;;;;1.54;74.70;98035.73;109136;1276;137174;-56
2022/02/07 04:21:44;;;;;;;12.30;6.50;;;;;;;1.56;74.50;98032.02;109366;1273;23274;-55
2022/02/07 04:24:18;;;;;;;11.60;6.10;;;;;;;1.55;74.36;98025.02;109163;1274;137372;-55
2022/02/07 04:27:02;;;;;;;9.50;5.60;;;;;;;1.53;74.03;98022.44;109310;1274;22448;-54
2022/02/07 04:29:31;;;;;;;13.20;6.00;;;;;;;1.49;74.00;98016.30;109319;1273;137441;-55
2022/02/07 04:32:01;;;;;;;10.00;6.60;;;;;;;1.50;73.87;98017.64;109244;1274;22544;-54
2022/02/07 04:34:29;;;;;;;10.30;6.00;;;;;;;1.48;74.03;98013.52;109294;1276;23166;-54
2022/02/07 04:36:58;;;;;;;9.70;4.50;;;;;;;1.47;73.80;98007.42;109107;1276;137735;-55
2022/02/07 04:39:26;;;;;;;8.50;5.30;;;;;;;1.46;73.40;98010.04;108619;1274;22559;-54
2022/02/07 04:42:06;;;;;;;9.70;5.30;;;;;;;1.47;73.48;98009.23;104844;1277;138423;-54
2022/02/07 04:44:42;;;;;;;8.70;5.70;;;;;;;1.48;73.22;98011.90;104913;1276;22790;-54
2022/02/07 04:55:41;;;;;;;10.20;5.50;;;;;;;1.46;72.96;98004.02;109168;1275;138910;-55
2022/02/07 04:58:02;;;;;;;16.20;7.30;;;;;;;1.45;73.09;98005.98;109207;1276;23439;-55
2022/02/07 05:01:30;;;;;;;;;;;;;;;1.44;73.32;98009.69;109148;1276;138938;-55
2022/02/07 05:03:26;;;;;;;16.90;8.20;;;;;;;1.41;73.30;98010.65;109182;1275;22464;-54
2022/02/07 05:14:15;;;;;;;16.60;8.40;;;;;;;1.31;74.79;98015.40;109248;1277;22450;-55
2022/02/07 05:16:43;;;;;;;21.90;9.70;;;;;;;1.30;75.41;98012.92;109122;1276;138966;-55
2022/02/07 05:19:22;;;;;;;24.60;10.40;;;;;;;1.28;75.45;98006.90;109303;1275;22509;-55
2022/02/07 05:22:05;;;;;;;11.90;5.70;;;;;;;1.26;75.86;98008.50;109191;1277;22522;-55
2022/02/07 05:24:39;;;;;;;11.60;5.90;;;;;;;1.25;76.52;97999.20;109188;1274;138514;-55
2022/02/07 05:27:33;;;;;;;15.60;8.20;;;;;;;1.25;76.99;97996.52;109330;1276;23540;-55
2022/02/07 05:30:18;;;;;;;19.80;9.60;;;;;;;1.25;77.49;97999.48;109124;1276;139216;-55
2022/02/07 05:33:05;;;;;;;25.20;11.70;;;;;;;1.25;77.73;97997.91;109411;1274;22432;-55
2022/02/07 05:35:40;;;;;;;19.60;9.80;;;;;;;1.26;78.13;97998.68;109256;1274;138216;-55
2022/02/07 05:38:33;;;;;;;17.10;7.20;;;;;;;1.25;78.66;97995.30;109220;1276;22474;-55
2022/02/07 05:41:22;;;;;;;12.50;7.10;;;;;;;1.27;79.20;98001.06;109278;1274;137319;-55
2022/02/07 05:44:01;;;;;;;14.10;7.00;;;;;;;1.24;79.28;97999.13;109319;1274;22412;-55
2022/02/07 05:46:48;;;;;;;12.00;6.90;;;;;;;1.24;79.96;98006.67;109257;1274;138003;-55
2022/02/07 05:49:34;;;;;;;11.70;6.50;;;;;;;1.27;80.06;98012.49;109394;1274;23199;-55
2022/02/07 05:52:05;;;;;;;10.10;6.30;;;;;;;1.27;80.46;98009.55;109368;1274;23518;-54
2022/02/07 05:54:58;;;;;;;9.30;5.10;;;;;;;1.28;80.87;98013.34;109253;1274;138370;-55
2022/02/07 05:57:44;;;;;;;9.50;6.20;;;;;;;1.30;81.14;98009.73;109291;1274;22470;-55
2022/02/07 06:00:33;;;;;;;13.30;7.50;;;;;;;1.34;81.37;98009.63;108899;1275;139858;-55
2022/02/07 06:03:06;;;;;;;10.60;5.90;;;;;;;1.35;81.51;98003.39;109161;1274;22584;-55
2022/02/07 06:05:41;;;;;;;12.20;7.00;;;;;;;1.37;81.62;98000.11;109131;1274;139355;-55
2022/02/07 06:08:17;;;;;;;15.10;7.50;;;;;;;1.38;81.89;97990.89;109294;1274;22237;-54
2022/02/07 06:10:47;;;;;;;10.20;5.80;;;;;;;1.37;82.18;97990.29;109148;1274;139559;-54
2022/02/07 06:13:17;;;;;;;15.10;6.30;;;;;;;1.38;82.49;97992.13;109319;1274;22440;-54
2022/02/07 06:15:49;;;;;;;7.60;5.20;;;;;;;1.40;82.57;97986.85;109363;1274;22417;-54
2022/02/07 06:18:19;;;;;;;9.60;6.00;;;;;;;1.43;82.79;97987.62;109236;1274;139240;-54
2022/02/07 06:20:49;;;;;;;9.60;5.50;;;;;;;1.47;83.17;97985.59;109271;1274;22391;-54
2022/02/07 06:23:18;;;;;;;14.80;7.20;;;;;;;1.49;83.38;97983.02;109232;1274;138994;-55
2022/02/07 06:25:47;;;;;;;15.20;9.10;;;;;;;1.53;83.42;97977.71;109307;1274;22461;-55
2022/02/07 06:28:18;;;;;;;16.30;9.50;;;;;;;1.55;83.41;97977.14;109285;1274;24017;-55
2022/02/07 06:30:52;;;;;;;20.40;11.10;;;;;;;1.55;83.48;97972.42;109246;1274;137140;-54
2022/02/07 06:33:22;;;;;;;16.20;9.70;;;;;;;1.55;83.42;97970.48;109326;1274;22285;-55
2022/02/07 06:35:53;;;;;;;11.80;7.10;;;;;;;1.54;83.59;97967.16;109200;1274;137046;-54
2022/02/07 06:38:26;;;;;;;12.40;6.80;;;;;;;1.54;83.79;97959.48;109306;1274;22418;-54
2022/02/07 06:40:55;;;;;;;19.40;7.20;;;;;;;1.54;83.75;97957.88;105883;1274;138062;-54
2022/02/07 06:43:23;;;;;;;11.80;6.70;;;;;;;1.54;83.65;97954.69;104929;1274;24468;-55
2022/02/07 06:45:52;;;;;;;10.20;6.10;;;;;;;1.54;83.91;97960.09;109132;1274;203966;-55
2022/02/07 06:49:21;;;;;;;10.10;6.00;;;;;;;1.58;83.87;97973.65;101547;1312;545319;-55
2022/02/07 06:51:50;;;;;;;9.50;5.90;;;;;;;1.60;83.94;97983.65;103717;1290;24001;-55
2022/02/07 06:54:18;;;;;;;12.90;6.30;;;;;;;1.63;84.05;97983.52;108042;1286;137029;-56
2022/02/07 06:56:49;;;;;;;11.20;6.20;;;;;;;1.67;83.95;97986.70;108140;1287;23425;-56
2022/02/07 06:59:19;;;;;;;10.30;6.00;;;;;;;1.70;83.85;97981.98;108139;1287;137765;-56
2022/02/07 07:01:52;;;;;;;7.70;5.00;;;;;;;1.72;83.84;97986.65;107915;1287;144764;-56
2022/02/07 07:04:22;;;;;;;9.50;6.20;;;;;;;1.72;83.76;97989.40;108381;1285;22523;-56
2022/02/07 07:06:51;;;;;;;10.60;5.90;;;;;;;1.73;83.70;97992.04;108154;1286;137505;-56
2022/02/07 07:09:19;;;;;;;9.10;6.80;;;;;;;1.74;83.76;97991.13;108218;1286;22484;-56
2022/02/07 07:11:49;;;;;;;12.30;6.00;;;;;;;1.74;83.44;97990.00;108185;1284;136702;-55
2022/02/07 07:14:39;;;;;;;10.30;6.50;;;;;;;1.74;83.42;97986.18;108420;1284;23280;-56
2022/02/07 07:17:08;;;;;;;12.00;6.60;;;;;;;1.73;83.64;97981.30;108391;1284;138630;-56
2022/02/07 07:19:43;;;;;;;9.20;6.00;;;;;;;1.71;83.29;97976.64;108333;1286;22471;-56
2022/02/07 07:22:11;;;;;;;13.60;7.40;;;;;;;1.70;83.34;97974.96;108307;1286;23492;-56
2022/02/07 07:24:42;;;;;;;13.80;7.90;;;;;;;1.69;83.34;97972.84;108238;1281;137430;-56
2022/02/07 07:27:12;;;;;;;14.60;7.90;;;;;;;1.65;83.55;97960.31;108336;1284;22499;-56
2022/02/07 07:29:45;;;;;;;10.70;7.10;;;;;;;1.68;83.43;97960.63;108198;1281;138184;-56
2022/02/07 07:32:18;;;;;;;13.30;7.20;;;;;;;1.68;83.72;97962.19;108516;1284;22493;-56
2022/02/07 07:34:47;;;;;;;12.70;7.10;;;;;;;1.70;83.59;97956.49;108326;1284;22465;-56
2022/02/07 07:37:18;;;;;;;12.00;6.30;;;;;;;1.72;83.66;97957.61;108128;1284;139519;-56
2022/02/07 07:39:47;;;;;;;10.90;6.20;;;;;;;1.74;83.68;97953.27;108022;1287;23217;-59
2022/02/07 07:42:16;;;;;;;13.80;8.00;;;;;;;1.76;83.73;97950.27;108009;1287;139540;-59
2022/02/07 07:44:58;;;;;;;12.90;7.50;;;;;;;1.78;83.67;97957.80;108220;1287;23311;-59
2022/02/07 07:48:06;;;;;;;11.90;8.00;;;;;;;1.81;83.71;97945.56;107765;1287;137704;-59
2022/02/07 07:51:04;;;;;;;11.90;7.40;;;;;;;1.81;83.81;97947.09;108327;1285;22445;-59
2022/02/07 07:54:13;;;;;;;15.90;8.10;;;;;;;1.83;83.82;97944.52;108023;1286;140587;-59
2022/02/07 08:02:28;;;;;;;23.10;10.10;;;;;;;1.87;83.57;97944.40;108283;1287;23451;-59
2022/02/07 08:04:58;;;;;;;21.80;10.80;;;;;;;1.89;83.56;97947.58;108203;1285;23252;-59
2022/02/07 08:07:33;;;;;;;19.80;9.60;;;;;;;1.90;83.51;97952.08;108088;1285;137581;-59
2022/02/07 08:12:39;;;;;;;11.10;6.70;;;;;;;1.94;83.25;97954.30;108847;1277;137840;-59
2022/02/07 08:15:08;;;;;;;13.70;7.20;;;;;;;1.97;83.24;97952.46;108935;1277;23092;-59
2022/02/07 08:17:37;;;;;;;12.50;7.00;;;;;;;1.99;82.98;97944.83;109034;1277;137050;-60
2022/02/07 08:20:05;;;;;;;13.90;8.00;;;;;;;2.00;82.84;97942.16;109200;1277;22437;-59
2022/02/07 08:22:34;;;;;;;12.40;7.00;;;;;;;1.99;82.68;97943.17;109102;1277;22485;-59
2022/02/07 08:25:02;;;;;;;13.80;7.10;;;;;;;1.97;82.55;97945.98;108987;1275;136885;-59
2022/02/07 08:27:31;;;;;;;13.60;7.30;;;;;;;1.95;82.54;97940.77;109162;1277;23317;-58
2022/02/07 08:29:59;;;;;;;10.30;6.70;;;;;;;1.95;82.52;97938.35;109043;1277;139286;-59
2022/02/07 08:32:27;;;;;;;15.30;7.40;;;;;;;1.93;82.39;97929.30;109113;1277;22420;-60
2022/02/07 08:35:00;;;;;;;12.20;7.10;;;;;;;1.93;82.49;97933.00;109145;1277;23107;-59
2022/02/07 08:37:29;;;;;;;14.90;6.30;;;;;;;1.95;82.52;97929.91;109078;1277;137453;-59
2022/02/07 08:39:57;;;;;;;14.40;7.60;;;;;;;1.95;82.32;97931.70;109144;1277;22452;-59
2022/02/07 08:42:25;;;;;;;13.70;7.20;;;;;;;1.95;82.38;97927.77;109003;1277;138702;-59
2022/02/07 08:44:53;;;;;;;14.00;7.30;;;;;;;1.96;82.36;97927.95;109152;1277;22622;-59
2022/02/07 08:47:23;;;;;;;13.50;7.00;;;;;;;1.97;82.17;97932.02;109050;1277;136913;-60
2022/02/07 08:49:51;;;;;;;14.90;6.80;;;;;;;1.96;81.97;97930.17;108930;1277;22614;-59
2022/02/07 08:52:19;;;;;;;15.80;7.40;;;;;;;1.96;81.82;97928.27;109194;1277;22525;-59
2022/02/07 08:54:48;;;;;;;13.60;7.00;;;;;;;1.93;81.64;97928.34;109011;1277;137772;-59
2022/02/07 08:57:25;;;;;;;11.50;6.70;;;;;;;1.94;81.60;97923.45;109158;1277;22734;-59
2022/02/07 09:00:15;;;;;;;;;;;;;;;1.93;81.44;97924.84;108931;1279;137701;-59
2022/02/07 09:08:09;;;;;;;15.30;5.90;;;;;;;1.92;81.10;97918.37;109120;1277;23521;-59
2022/02/07 09:10:37;;;;;;;10.70;6.50;;;;;;;1.94;80.99;97920.39;109067;1277;22455;-59
2022/02/07 09:13:05;;;;;;;18.20;6.40;;;;;;;1.96;81.05;97913.73;109052;1277;138565;-59
2022/02/07 09:18:07;;;;;;;14.20;6.70;;;;;;;2.00;80.67;97913.92;109104;1277;137177;-59
2022/02/07 09:20:35;;;;;;;15.80;7.00;;;;;;;2.02;80.54;97910.13;109134;1277;22620;-59
2022/02/07 09:23:04;;;;;;;12.70;6.90;;;;;;;2.05;80.55;97914.30;109133;1277;22494;-59
2022/02/07 09:25:32;;;;;;;11.50;6.30;;;;;;;2.08;80.36;97911.30;109041;1277;136387;-58
2022/02/07 09:28:01;;;;;;;12.70;7.10;;;;;;;2.11;80.45;97910.94;109128;1277;22457;-59
2022/02/07 09:30:30;;;;;;;12.40;7.20;;;;;;;2.16;80.29;97902.35;109027;1277;137605;-59
2022/02/07 09:32:58;;;;;;;17.20;8.80;;;;;;;2.19;80.12;97902.17;109216;1277;22452;-58
2022/02/07 09:35:26;;;;;;;14.70;8.00;;;;;;;2.22;80.01;97894.66;108967;1277;138543;-59
2022/02/07 09:37:55;;;;;;;13.90;7.20;;;;;;;2.26;79.92;97894.95;108901;1277;22444;-59
2022/02/07 09:40:23;;;;;;;13.20;7.70;;;;;;;2.30;79.82;97903.98;109151;1277;22532;-59
2022/02/07 09:42:57;;;;;;;14.10;8.70;;;;;;;2.35;79.53;97900.71;108980;1277;139324;-59
2022/02/07 09:45:45;;;;;;;15.50;7.60;;;;;;;2.38;79.31;97899.77;108978;1277;23096;-59
2022/02/07 09:48:15;;;;;;;15.50;7.60;;;;;;;2.44;79.15;97899.80;108929;1277;138673;-59
2022/02/07 09:50:43;;;;;;;14.30;8.50;;;;;;;2.46;78.83;97895.52;109130;1277;22474;-59
2022/02/07 09:53:11;;;;;;;13.70;7.10;;;;;;;2.48;78.64;97897.27;108934;1277;138569;-59
2022/02/07 09:55:40;;;;;;;18.50;9.10;;;;;;;2.51;78.40;97901.82;109011;1277;22567;-59
2022/02/07 09:58:08;;;;;;;14.00;8.40;;;;;;;2.54;78.16;97902.56;109082;1277;22557;-59
2022/02/07 10:00:37;;;;;;;13.80;8.10;;;;;;;2.58;77.99;97902.86;108997;1277;139164;-59
2022/02/07 10:06:16;;;;;;;15.30;7.30;;;;;;;2.60;77.32;97899.44;108854;1277;137769;-59
2022/02/07 10:11:52;;;;;;;12.80;7.50;;;;;;;2.64;76.82;97915.52;108798;1277;123423;-59
2022/02/07 10:14:25;;;;;;;10.20;5.60;;;;;;;2.64;76.57;97916.59;109156;1277;22464;-59
2022/02/07 10:17:31;;;;;;;11.90;7.40;;;;;;;2.63;76.31;97920.82;109142;1277;22529;-59
2022/02/07 10:22:52;;;;;;;17.70;8.90;;;;;;;2.61;75.95;97926.55;109149;1277;23492;-59
2022/02/07 10:45:53;;;;;;;16.70;9.10;;;;;;;2.63;74.80;97921.31;108549;1283;23267;-56
2022/02/07 10:48:41;;;;;;;20.70;10.50;;;;;;;2.66;74.79;97928.46;108414;1283;136794;-56
2022/02/07 10:51:18;;;;;;;18.60;9.10;;;;;;;2.66;74.55;97931.52;108465;1283;22447;-56
2022/02/07 10:53:51;;;;;;;23.60;11.50;;;;;;;2.65;74.44;97930.27;108231;1284;138366;-56
2022/02/07 10:56:21;;;;;;;23.30;12.90;;;;;;;2.65;74.53;97927.84;108403;1284;22553;-57
2022/02/07 10:58:51;;;;;;;27.00;13.50;;;;;;;2.64;74.47;97923.70;108329;1283;22438;-57
2022/02/07 11:01:31;;;;;;;30.20;12.50;;;;;;;2.66;74.31;97922.06;108253;1283;139657;-57
2022/02/07 11:04:04;;;;;;;27.30;13.50;;;;;;;2.68;74.16;97920.10;108368;1283;22623;-57
2022/02/07 11:06:35;;;;;;;20.90;10.50;;;;;;;2.68;74.14;97914.30;108263;1283;137861;-57
2022/02/07 11:11:47;;;;;;;18.40;10.70;;;;;;;2.77;74.28;97908.98;108628;1277;138635;-60
2022/02/07 11:22:28;;;;;;;16.30;9.30;;;;;;;2.82;73.94;97882.61;109072;1277;22595;-57
2022/02/07 11:27:58;;;;;;;17.10;9.10;;;;;;;2.82;73.88;97872.66;108792;1277;22470;-57
2022/02/07 11:30:35;;;;;;;16.70;9.40;;;;;;;2.81;74.03;97854.45;108935;1277;137273;-57
2022/02/07 11:33:05;;;;;;;18.40;8.40;;;;;;;2.81;74.08;97845.25;109024;1277;22470;-57
2022/02/07 11:35:48;;;;;;;17.40;8.50;;;;;;;2.80;74.13;97842.88;108995;1277;137503;-56
2022/02/07 11:38:19;;;;;;;16.10;7.90;;;;;;;2.80;74.18;97833.89;108858;1280;22539;-56
2022/02/07 11:41:04;;;;;;;17.70;8.30;;;;;;;2.78;74.37;97829.35;109041;1277;22518;-56
2022/02/07 11:43:37;;;;;;;16.10;8.10;;;;;;;2.75;74.47;97832.69;108954;1277;138650;-57
2022/02/07 11:46:06;;;;;;;12.90;7.90;;;;;;;2.78;74.45;97828.27;108836;1280;22526;-57
2022/02/07 11:48:37;;;;;;;15.30;8.60;;;;;;;2.80;74.65;97831.79;108969;1277;139434;-57
2022/02/07 11:51:21;;;;;;;14.30;9.60;;;;;;;2.82;74.69;97829.52;109069;1277;23346;-57
2022/02/07 11:54:02;;;;;;;14.80;8.50;;;;;;;2.85;74.74;97824.98;108963;1277;138342;-57
2022/02/07 11:56:55;;;;;;;14.40;8.30;;;;;;;2.88;74.83;97824.16;108940;1277;23321;-57
2022/02/07 11:59:39;;;;;;;24.10;13.30;;;;;;;2.89;74.70;97818.40;108778;1277;139034;-56
2022/02/07 12:02:14;;;;;;;22.70;11.60;;;;;;;2.89;74.86;97823.94;108921;1279;23167;-58
2022/02/07 12:04:48;;;;;;;15.20;8.90;;;;;;;2.89;74.83;97836.35;108953;1279;22445;-55
2022/02/07 12:07:25;;;;;;;20.70;9.70;;;;;;;2.88;74.96;97841.54;108842;1279;138234;-55
2022/02/07 12:09:59;;;;;;;16.80;9.80;;;;;;;2.87;74.94;97851.31;108985;1279;23301;-55
2022/02/07 12:12:50;;;;;;;17.70;9.00;;;;;;;2.86;75.11;97855.71;108829;1280;138687;-55
2022/02/07 12:15:45;;;;;;;11.80;7.70;;;;;;;2.86;75.02;97871.15;108962;1280;22457;-55
2022/02/07 12:18:30;;;;;;;16.00;7.80;;;;;;;2.87;75.34;97885.73;108869;1279;140069;-55
2022/02/07 12:21:19;;;;;;;13.20;7.40;;;;;;;2.90;75.56;97910.73;108985;1279;22439;-55
2022/02/07 12:23:50;;;;;;;15.10;7.30;;;;;;;2.97;75.70;97914.92;108884;1279;138806;-55
2022/02/07 12:26:18;;;;;;;15.20;7.50;;;;;;;3.02;75.67;97910.89;108842;1280;22600;-55
2022/02/07 12:28:49;;;;;;;14.10;7.80;;;;;;;3.05;75.66;97900.00;108961;1280;23665;-55
2022/02/07 12:31:21;;;;;;;12.50;7.40;;;;;;;3.08;75.49;97904.73;108858;1280;138856;-55
2022/02/07 12:33:56;;;;;;;12.00;8.10;;;;;;;3.10;75.53;97897.29;108983;1279;23287;-58
2022/02/07 12:36:29;;;;;;;16.00;8.20;;;;;;;3.11;75.54;97890.58;108829;1280;137613;-55
2022/02/07 12:38:58;;;;;;;14.80;8.10;;;;;;;3.13;75.56;97890.49;108775;1280;22497;-56
2022/02/07 12:41:29;;;;;;;15.20;7.20;;;;;;;3.14;75.61;97900.52;104501;1280;138460;-55
2022/02/07 12:43:58;;;;;;;12.50;7.50;;;;;;;3.17;75.63;97909.80;104541;1280;25269;-55
2022/02/07 12:46:27;;;;;;;16.90;8.60;;;;;;;3.18;75.66;97902.44;108683;1280;23309;-55
2022/02/07 12:49:01;;;;;;;15.40;8.10;;;;;;;3.18;75.59;97897.48;108696;1280;138029;-56
2022/02/07 12:51:42;;;;;;;13.50;7.50;;;;;;;3.22;75.75;97893.88;108953;1279;22530;-55
2022/02/07 12:54:10;;;;;;;20.30;9.70;;;;;;;3.26;75.54;97894.24;108806;1280;138286;-56
2022/02/07 12:56:39;;;;;;;12.00;7.80;;;;;;;3.28;75.66;97895.84;108910;1280;22574;-55
2022/02/07 12:59:07;;;;;;;11.90;7.70;;;;;;;3.29;75.76;97898.88;108846;1279;138285;-56
2022/02/07 13:01:37;;;;;;;10.50;6.80;;;;;;;3.31;75.66;97902.92;108913;1280;22573;-55
2022/02/07 13:04:15;;;;;;;15.10;7.10;;;;;;;3.32;75.50;97906.22;108879;1279;22625;-55
2022/02/07 13:06:52;;;;;;;13.60;7.90;;;;;;;3.34;75.51;97916.30;108812;1280;138733;-56
2022/02/07 13:09:28;;;;;;;13.00;7.60;;;;;;;3.36;75.44;97918.96;108922;1279;22411;-55
2022/02/07 13:12:02;;;;;;;12.70;8.30;;;;;;;3.37;75.50;97914.02;108767;1280;138396;-55
2022/02/07 13:14:36;;;;;;;14.80;9.10;;;;;;;3.40;75.44;97923.23;108940;1280;22546;-55
2022/02/07 13:17:05;;;;;;;12.80;7.70;;;;;;;3.42;75.35;97923.04;108909;1280;22628;-56
2022/02/07 13:19:35;;;;;;;13.40;7.70;;;;;;;3.45;75.13;97924.16;108423;1280;137933;-55
2022/02/07 13:22:03;;;;;;;12.60;7.70;;;;;;;3.49;75.29;97924.56;108985;1280;22588;-55
2022/02/07 13:24:32;;;;;;;14.00;8.30;;;;;;;3.55;75.18;97931.25;108810;1280;137953;-56
2022/02/07 13:27:01;;;;;;;15.70;8.60;;;;;;;3.58;74.98;97936.05;108891;1279;23166;-55
2022/02/07 13:29:46;;;;;;;16.60;9.30;;;;;;;3.59;74.92;97935.55;108804;1279;138343;-56
2022/02/07 13:32:16;;;;;;;15.10;9.00;;;;;;;3.62;74.74;97935.75;108974;1279;22470;-55
2022/02/07 13:34:47;;;;;;;15.10;9.70;;;;;;;3.67;74.66;97935.38;108598;1280;137947;-55
2022/02/07 13:37:26;;;;;;;16.50;8.80;;;;;;;3.68;74.63;97930.39;108882;1279;22466;-55
2022/02/07 13:40:01;;;;;;;13.70;8.30;;;;;;;3.69;74.59;97927.80;107325;1280;139820;-58
2022/02/07 13:42:31;;;;;;;17.60;9.00;;;;;;;3.68;74.18;97927.10;108888;1279;22513;-58
2022/02/07 13:45:02;;;;;;;13.10;7.30;;;;;;;3.66;74.32;97924.86;108793;1279;22511;-58
2022/02/07 13:47:30;;;;;;;12.50;7.40;;;;;;;3.66;74.43;97930.67;108838;1279;138230;-58
2022/02/07 13:50:04;;;;;;;12.50;7.60;;;;;;;3.65;74.38;97927.97;108926;1279;22588;-58
2022/02/07 13:52:44;;;;;;;13.20;8.10;;;;;;;3.64;74.44;97930.71;108851;1280;22437;-58
2022/02/07 13:55:34;;;;;;;14.00;8.70;;;;;;;3.64;74.42;97929.10;108299;1280;138493;-59
2022/02/07 13:58:09;;;;;;;13.20;9.00;;;;;;;3.64;74.30;97924.40;108999;1280;22633;-58
2022/02/07 14:00:48;;;;;;;18.00;10.00;;;;;;;3.62;74.33;97922.39;108882;1279;138322;-58
2022/02/07 14:03:32;;;;;;;17.20;10.30;;;;;;;3.62;74.53;97929.86;108974;1279;22564;-58
2022/02/07 14:06:11;;;;;;;26.50;13.90;;;;;;;3.62;74.41;97933.27;108869;1279;139230;-59
2022/02/07 14:08:44;;;;;;;28.50;17.00;;;;;;;3.61;74.48;97931.44;108950;1279;23379;-59
2022/02/07 14:11:13;;;;;;;33.20;17.90;;;;;;;3.60;74.55;97929.08;108985;1280;22472;-58
2022/02/07 14:13:42;;;;;;;28.90;17.60;;;;;;;3.59;74.24;97927.81;108862;1279;137080;-59
2022/02/07 14:16:10;;;;;;;37.10;19.50;;;;;;;3.58;74.12;97926.83;108979;1279;22586;-58
2022/02/07 14:18:44;;;;;;;33.30;18.90;;;;;;;3.55;74.22;97932.77;109005;1278;137443;-59